メインページ
METAR-TAF:

METAR-TAF

空港 :

カンザスシティ, ミズーリ州, アメリカ合衆国

カンザスシティ国際空港

緯度: 39-17-50N, 経度: 094-43-50W, 海抜: 312m

現時点の気象観測

当レポートは46分前の00:53(UTC)に作成
南西の風 4kt
気温 18°C
湿度 32%
気圧 1016 hPa
視程: 16.1km
高度25000ftの雲は散在している

METAR: KMCI 240053Z 23004KT 10SM SCT250 18/01 A2999 RMK AO2 SLP153 T01780011

時間: 20:39 (01:39 UTC)

予報

当レポートは2時間19分前の23:20(UTC)に作成
予報は24日の 00時(UTC)から 24日の 24時(UTC)まで有効
の風 6kt
視程: 10km
高度25000ftの雲はほとんどない
24日の 1400時(UTC)から
の風 17kt、最大27ktの突風を伴う
視程: 10km
高度25000ftの雲はほとんどない

TAF: KMCI 232320Z 2400/2424 17006KT P6SM FEW250 FM241400 17017G27KT P6SM FEW250

4,000以上の空港の気象観測と天気予報(METAR報とTAF報)

利用可能な観測所は地図上に黄色い丸と赤い丸で示す。

丸の上にカーソルを重ねると観測所名を参照できる。

次にクリックすると気象観測と天気予報を参照できる。

マップの切り替え:黒色「×」印の緑ボタンをクリックして拡大、「-」印の緑ボタンをクリックして縮小、緑色の三角印をクリックして隣りの地図に切り替え


METAR-TAF: